Terminal Aerodrome Forecast
Issued by NWS Corpus Christi, TX

Home | Current Version | Previous Version | Text Only | Print | Product List | Glossary On
Versions: 1 2 3 4 5 6 7 8 9 10 11 12 13 14 15 16
000
FTUS44 KCRP 300537
TAFVCT
TAF
KVCT 300537Z 3006/0106 17005KT P6SM FEW025
     FM300800 VRB03KT 4SM BR FEW020
      TEMPO 3009/3013 1 1/2SM BR FEW009
     FM301400 VRB05KT P6SM VCSH SCT024 PROB30 3015/3021 4SM TSRA BR
      BKN025CB BKN050
     FM302100 17011KT P6SM VCTS SCT030CB BKN120
     FM010000 15006KT P6SM FEW025 BKN120=

USA.gov is the U.S. government's official web portal to all federal, state and local government web resources and services.